sensor_id;sensor_type;location;lat;lon;timestamp;temperature;humidity
14049;DHT22;7099;53.922;10.728;2023-11-19T00:02:20;5.60;99.90
14049;DHT22;7099;53.922;10.728;2023-11-19T00:06:27;5.60;99.90
14049;DHT22;7099;53.922;10.728;2023-11-19T00:10:33;5.60;99.90
14049;DHT22;7099;53.922;10.728;2023-11-19T00:14:38;5.60;99.90
14049;DHT22;7099;53.922;10.728;2023-11-19T00:18:44;5.60;99.90
14049;DHT22;7099;53.922;10.728;2023-11-19T00:22:49;5.60;99.90
14049;DHT22;7099;53.922;10.728;2023-11-19T00:26:58;5.70;99.90
14049;DHT22;7099;53.922;10.728;2023-11-19T00:31:04;5.70;99.90
14049;DHT22;7099;53.922;10.728;2023-11-19T00:35:11;5.70;99.90
14049;DHT22;7099;53.922;10.728;2023-11-19T00:39:20;5.70;99.90
14049;DHT22;7099;53.922;10.728;2023-11-19T00:43:26;5.70;99.90
14049;DHT22;7099;53.922;10.728;2023-11-19T00:47:32;5.70;99.90
14049;DHT22;7099;53.922;10.728;2023-11-19T00:51:38;5.70;99.90
14049;DHT22;7099;53.922;10.728;2023-11-19T00:55:44;5.70;99.90
14049;DHT22;7099;53.922;10.728;2023-11-19T00:59:51;5.70;99.90
14049;DHT22;7099;53.922;10.728;2023-11-19T01:03:58;5.70;99.90
14049;DHT22;7099;53.922;10.728;2023-11-19T01:08:04;5.80;99.90
14049;DHT22;7099;53.922;10.728;2023-11-19T01:12:11;5.70;99.90
14049;DHT22;7099;53.922;10.728;2023-11-19T01:16:18;5.80;99.90
14049;DHT22;7099;53.922;10.728;2023-11-19T01:20:24;5.80;99.90
14049;DHT22;7099;53.922;10.728;2023-11-19T01:24:29;5.80;99.90
14049;DHT22;7099;53.922;10.728;2023-11-19T01:28:37;5.80;99.90
14049;DHT22;7099;53.922;10.728;2023-11-19T01:32:56;5.80;99.90
14049;DHT22;7099;53.922;10.728;2023-11-19T01:37:02;5.80;99.90
14049;DHT22;7099;53.922;10.728;2023-11-19T01:41:08;5.80;99.90
14049;DHT22;7099;53.922;10.728;2023-11-19T01:45:22;5.80;99.90
14049;DHT22;7099;53.922;10.728;2023-11-19T01:49:34;5.80;99.90
14049;DHT22;7099;53.922;10.728;2023-11-19T01:53:40;5.80;99.90
14049;DHT22;7099;53.922;10.728;2023-11-19T01:57:46;5.80;99.90
14049;DHT22;7099;53.922;10.728;2023-11-19T02:01:54;5.80;99.90
14049;DHT22;7099;53.922;10.728;2023-11-19T02:06:03;5.90;99.90
14049;DHT22;7099;53.922;10.728;2023-11-19T02:10:10;5.90;99.90
14049;DHT22;7099;53.922;10.728;2023-11-19T02:14:24;5.90;99.90
14049;DHT22;7099;53.922;10.728;2023-11-19T02:18:30;5.80;99.90
14049;DHT22;7099;53.922;10.728;2023-11-19T02:22:36;5.90;99.90
14049;DHT22;7099;53.922;10.728;2023-11-19T02:27:03;5.90;99.90
14049;DHT22;7099;53.922;10.728;2023-11-19T02:31:15;5.90;99.90
14049;DHT22;7099;53.922;10.728;2023-11-19T02:35:21;5.90;99.90
14049;DHT22;7099;53.922;10.728;2023-11-19T02:39:28;5.80;99.90
14049;DHT22;7099;53.922;10.728;2023-11-19T02:43:34;5.90;99.90
14049;DHT22;7099;53.922;10.728;2023-11-19T02:47:44;5.90;99.90
14049;DHT22;7099;53.922;10.728;2023-11-19T02:51:52;5.90;99.90
14049;DHT22;7099;53.922;10.728;2023-11-19T02:56:02;5.90;99.90
14049;DHT22;7099;53.922;10.728;2023-11-19T03:00:21;5.90;99.90
14049;DHT22;7099;53.922;10.728;2023-11-19T03:04:38;5.90;99.90
14049;DHT22;7099;53.922;10.728;2023-11-19T03:08:45;5.90;99.90
14049;DHT22;7099;53.922;10.728;2023-11-19T03:12:50;6.00;99.90
14049;DHT22;7099;53.922;10.728;2023-11-19T03:16:56;5.90;99.90
14049;DHT22;7099;53.922;10.728;2023-11-19T03:21:02;6.00;99.90
14049;DHT22;7099;53.922;10.728;2023-11-19T03:25:08;6.00;99.90
14049;DHT22;7099;53.922;10.728;2023-11-19T03:29:14;6.00;99.90
14049;DHT22;7099;53.922;10.728;2023-11-19T03:33:20;6.00;99.90
14049;DHT22;7099;53.922;10.728;2023-11-19T03:37:26;6.00;99.90
14049;DHT22;7099;53.922;10.728;2023-11-19T03:41:32;6.10;99.90
14049;DHT22;7099;53.922;10.728;2023-11-19T03:45:41;6.00;99.90
14049;DHT22;7099;53.922;10.728;2023-11-19T03:49:49;6.00;99.90
14049;DHT22;7099;53.922;10.728;2023-11-19T03:53:56;6.10;99.90
14049;DHT22;7099;53.922;10.728;2023-11-19T03:58:01;6.10;99.90
14049;DHT22;7099;53.922;10.728;2023-11-19T04:02:07;6.10;99.90
14049;DHT22;7099;53.922;10.728;2023-11-19T04:06:12;6.10;99.90
14049;DHT22;7099;53.922;10.728;2023-11-19T04:10:18;6.10;99.90
14049;DHT22;7099;53.922;10.728;2023-11-19T04:14:24;6.20;99.90
14049;DHT22;7099;53.922;10.728;2023-11-19T04:18:29;6.20;99.90
14049;DHT22;7099;53.922;10.728;2023-11-19T04:22:37;6.20;99.90
14049;DHT22;7099;53.922;10.728;2023-11-19T04:26:43;6.20;99.90
14049;DHT22;7099;53.922;10.728;2023-11-19T04:30:50;6.20;99.90
14049;DHT22;7099;53.922;10.728;2023-11-19T04:34:55;6.20;99.90
14049;DHT22;7099;53.922;10.728;2023-11-19T04:39:01;6.20;99.90
14049;DHT22;7099;53.922;10.728;2023-11-19T04:43:07;6.30;99.90
14049;DHT22;7099;53.922;10.728;2023-11-19T04:47:13;6.30;99.90
14049;DHT22;7099;53.922;10.728;2023-11-19T04:51:19;6.30;99.90
14049;DHT22;7099;53.922;10.728;2023-11-19T04:55:25;6.30;99.90
14049;DHT22;7099;53.922;10.728;2023-11-19T04:59:30;6.40;99.90
14049;DHT22;7099;53.922;10.728;2023-11-19T05:03:36;6.40;99.90
14049;DHT22;7099;53.922;10.728;2023-11-19T05:07:42;6.40;99.90
14049;DHT22;7099;53.922;10.728;2023-11-19T05:11:47;6.40;99.90
14049;DHT22;7099;53.922;10.728;2023-11-19T05:15:56;6.40;99.90
14049;DHT22;7099;53.922;10.728;2023-11-19T05:20:02;6.40;99.90
14049;DHT22;7099;53.922;10.728;2023-11-19T05:24:08;6.40;99.90
14049;DHT22;7099;53.922;10.728;2023-11-19T05:28:14;6.50;99.90
14049;DHT22;7099;53.922;10.728;2023-11-19T05:32:20;6.50;99.90
14049;DHT22;7099;53.922;10.728;2023-11-19T05:36:25;6.40;99.90
14049;DHT22;7099;53.922;10.728;2023-11-19T05:40:31;6.50;99.90
14049;DHT22;7099;53.922;10.728;2023-11-19T05:44:37;6.50;99.90
14049;DHT22;7099;53.922;10.728;2023-11-19T05:48:45;6.60;99.90
14049;DHT22;7099;53.922;10.728;2023-11-19T05:52:52;6.60;99.90
14049;DHT22;7099;53.922;10.728;2023-11-19T05:56:59;6.70;99.90
14049;DHT22;7099;53.922;10.728;2023-11-19T06:01:05;6.70;99.90
14049;DHT22;7099;53.922;10.728;2023-11-19T06:05:13;6.70;99.90
14049;DHT22;7099;53.922;10.728;2023-11-19T06:09:19;6.80;99.90
14049;DHT22;7099;53.922;10.728;2023-11-19T06:13:24;6.80;99.90
14049;DHT22;7099;53.922;10.728;2023-11-19T06:17:31;6.90;99.90
14049;DHT22;7099;53.922;10.728;2023-11-19T06:21:37;6.90;99.90
14049;DHT22;7099;53.922;10.728;2023-11-19T06:25:42;6.90;99.90
14049;DHT22;7099;53.922;10.728;2023-11-19T06:29:48;6.90;99.90
14049;DHT22;7099;53.922;10.728;2023-11-19T06:33:53;7.00;99.90
14049;DHT22;7099;53.922;10.728;2023-11-19T06:37:59;7.00;99.90
14049;DHT22;7099;53.922;10.728;2023-11-19T06:42:06;7.00;99.90
14049;DHT22;7099;53.922;10.728;2023-11-19T06:46:16;7.10;99.90
14049;DHT22;7099;53.922;10.728;2023-11-19T06:50:22;7.10;99.90
14049;DHT22;7099;53.922;10.728;2023-11-19T06:54:29;7.10;99.90
14049;DHT22;7099;53.922;10.728;2023-11-19T06:58:37;7.10;99.90
14049;DHT22;7099;53.922;10.728;2023-11-19T07:02:43;7.20;99.90
14049;DHT22;7099;53.922;10.728;2023-11-19T07:06:50;7.20;99.90
14049;DHT22;7099;53.922;10.728;2023-11-19T07:10:57;7.30;99.90
14049;DHT22;7099;53.922;10.728;2023-11-19T07:15:03;7.30;99.90
14049;DHT22;7099;53.922;10.728;2023-11-19T07:19:09;7.40;99.90
14049;DHT22;7099;53.922;10.728;2023-11-19T07:23:15;7.40;99.90
14049;DHT22;7099;53.922;10.728;2023-11-19T07:27:24;7.40;99.90
14049;DHT22;7099;53.922;10.728;2023-11-19T07:31:29;7.50;99.90
14049;DHT22;7099;53.922;10.728;2023-11-19T07:35:35;7.50;99.90
14049;DHT22;7099;53.922;10.728;2023-11-19T07:39:40;7.60;99.90
14049;DHT22;7099;53.922;10.728;2023-11-19T07:43:46;7.60;99.90
14049;DHT22;7099;53.922;10.728;2023-11-19T07:47:52;7.70;99.90
14049;DHT22;7099;53.922;10.728;2023-11-19T07:51:58;7.80;99.90
14049;DHT22;7099;53.922;10.728;2023-11-19T07:56:04;7.80;99.90
14049;DHT22;7099;53.922;10.728;2023-11-19T08:00:11;7.90;99.90
14049;DHT22;7099;53.922;10.728;2023-11-19T08:04:17;8.00;99.90
14049;DHT22;7099;53.922;10.728;2023-11-19T08:08:24;8.00;99.90
14049;DHT22;7099;53.922;10.728;2023-11-19T08:12:30;8.10;99.90
14049;DHT22;7099;53.922;10.728;2023-11-19T08:16:35;8.20;99.90
14049;DHT22;7099;53.922;10.728;2023-11-19T08:20:42;8.20;99.90
14049;DHT22;7099;53.922;10.728;2023-11-19T08:24:49;8.40;99.90
14049;DHT22;7099;53.922;10.728;2023-11-19T08:28:55;8.50;99.90
14049;DHT22;7099;53.922;10.728;2023-11-19T08:33:00;8.60;99.90
14049;DHT22;7099;53.922;10.728;2023-11-19T08:37:08;8.70;99.90
14049;DHT22;7099;53.922;10.728;2023-11-19T08:41:14;8.70;99.90
14049;DHT22;7099;53.922;10.728;2023-11-19T08:45:20;8.80;99.90
14049;DHT22;7099;53.922;10.728;2023-11-19T08:49:25;8.90;99.90
14049;DHT22;7099;53.922;10.728;2023-11-19T08:53:32;9.00;99.90
14049;DHT22;7099;53.922;10.728;2023-11-19T08:57:38;9.20;99.90
14049;DHT22;7099;53.922;10.728;2023-11-19T09:01:43;9.20;99.90
14049;DHT22;7099;53.922;10.728;2023-11-19T09:05:49;9.30;99.90
14049;DHT22;7099;53.922;10.728;2023-11-19T09:09:55;9.50;99.90
14049;DHT22;7099;53.922;10.728;2023-11-19T09:14:01;9.60;99.90
14049;DHT22;7099;53.922;10.728;2023-11-19T09:18:06;9.70;99.90
14049;DHT22;7099;53.922;10.728;2023-11-19T09:22:12;9.90;99.90
14049;DHT22;7099;53.922;10.728;2023-11-19T09:26:18;10.00;99.90
14049;DHT22;7099;53.922;10.728;2023-11-19T09:30:23;10.20;99.90
14049;DHT22;7099;53.922;10.728;2023-11-19T09:34:29;10.40;99.90
14049;DHT22;7099;53.922;10.728;2023-11-19T09:38:35;10.50;99.90
14049;DHT22;7099;53.922;10.728;2023-11-19T09:42:43;10.70;99.90
14049;DHT22;7099;53.922;10.728;2023-11-19T09:46:51;10.80;99.90
14049;DHT22;7099;53.922;10.728;2023-11-19T09:50:57;10.90;99.90
14049;DHT22;7099;53.922;10.728;2023-11-19T09:55:03;11.00;99.90
14049;DHT22;7099;53.922;10.728;2023-11-19T09:59:09;11.00;99.90
14049;DHT22;7099;53.922;10.728;2023-11-19T10:03:18;11.00;99.90
14049;DHT22;7099;53.922;10.728;2023-11-19T10:07:24;11.10;99.90
14049;DHT22;7099;53.922;10.728;2023-11-19T10:11:31;11.10;99.90
14049;DHT22;7099;53.922;10.728;2023-11-19T10:15:37;11.20;99.90
14049;DHT22;7099;53.922;10.728;2023-11-19T10:19:43;11.30;99.90
14049;DHT22;7099;53.922;10.728;2023-11-19T10:23:52;11.40;99.90
14049;DHT22;7099;53.922;10.728;2023-11-19T10:28:01;11.40;99.90
14049;DHT22;7099;53.922;10.728;2023-11-19T10:32:08;11.50;99.90
14049;DHT22;7099;53.922;10.728;2023-11-19T10:36:38;11.50;99.90
14049;DHT22;7099;53.922;10.728;2023-11-19T10:40:48;11.60;99.90
14049;DHT22;7099;53.922;10.728;2023-11-19T10:44:54;11.70;99.90
14049;DHT22;7099;53.922;10.728;2023-11-19T10:49:00;11.80;99.90
14049;DHT22;7099;53.922;10.728;2023-11-19T10:53:07;11.80;99.90
14049;DHT22;7099;53.922;10.728;2023-11-19T10:57:20;11.80;99.90
14049;DHT22;7099;53.922;10.728;2023-11-19T11:01:47;11.90;99.90
14049;DHT22;7099;53.922;10.728;2023-11-19T11:05:53;11.90;99.90
14049;DHT22;7099;53.922;10.728;2023-11-19T11:10:01;12.00;99.90
14049;DHT22;7099;53.922;10.728;2023-11-19T11:14:07;12.10;99.90
14049;DHT22;7099;53.922;10.728;2023-11-19T11:18:19;12.10;99.90
14049;DHT22;7099;53.922;10.728;2023-11-19T11:22:26;12.10;99.90
14049;DHT22;7099;53.922;10.728;2023-11-19T11:41:22;12.10;99.90
14049;DHT22;7099;53.922;10.728;2023-11-19T11:45:38;12.10;99.90
14049;DHT22;7099;53.922;10.728;2023-11-19T11:49:48;12.10;99.90
14049;DHT22;7099;53.922;10.728;2023-11-19T11:53:58;12.10;99.90
14049;DHT22;7099;53.922;10.728;2023-11-19T11:58:05;12.00;99.90
14049;DHT22;7099;53.922;10.728;2023-11-19T12:02:13;12.10;99.90
14049;DHT22;7099;53.922;10.728;2023-11-19T12:06:21;12.00;99.90
14049;DHT22;7099;53.922;10.728;2023-11-19T12:10:30;12.00;99.90
14049;DHT22;7099;53.922;10.728;2023-11-19T12:19:04;12.00;99.90
14049;DHT22;7099;53.922;10.728;2023-11-19T12:23:11;12.00;99.90
14049;DHT22;7099;53.922;10.728;2023-11-19T12:27:17;12.00;99.90
14049;DHT22;7099;53.922;10.728;2023-11-19T12:31:23;12.00;99.90
14049;DHT22;7099;53.922;10.728;2023-11-19T12:35:28;12.00;99.90
14049;DHT22;7099;53.922;10.728;2023-11-19T12:39:34;12.00;99.90
14049;DHT22;7099;53.922;10.728;2023-11-19T12:43:40;12.00;99.90
14049;DHT22;7099;53.922;10.728;2023-11-19T12:47:48;11.90;99.90
14049;DHT22;7099;53.922;10.728;2023-11-19T12:51:55;12.00;99.90
14049;DHT22;7099;53.922;10.728;2023-11-19T12:56:07;12.00;99.90
14049;DHT22;7099;53.922;10.728;2023-11-19T13:00:21;12.00;99.90
14049;DHT22;7099;53.922;10.728;2023-11-19T13:04:29;12.00;99.90
14049;DHT22;7099;53.922;10.728;2023-11-19T13:08:39;12.00;99.90
14049;DHT22;7099;53.922;10.728;2023-11-19T13:13:08;12.10;99.90
14049;DHT22;7099;53.922;10.728;2023-11-19T13:17:15;12.00;99.90
14049;DHT22;7099;53.922;10.728;2023-11-19T13:21:21;12.10;99.90
14049;DHT22;7099;53.922;10.728;2023-11-19T13:25:27;12.10;99.90
14049;DHT22;7099;53.922;10.728;2023-11-19T13:29:33;12.00;99.90
14049;DHT22;7099;53.922;10.728;2023-11-19T13:33:41;12.10;99.90
14049;DHT22;7099;53.922;10.728;2023-11-19T13:37:47;12.00;99.90
14049;DHT22;7099;53.922;10.728;2023-11-19T13:41:53;12.10;99.90
14049;DHT22;7099;53.922;10.728;2023-11-19T13:46:17;12.10;99.90
14049;DHT22;7099;53.922;10.728;2023-11-19T13:50:23;12.10;99.90
14049;DHT22;7099;53.922;10.728;2023-11-19T13:54:28;12.20;99.90
14049;DHT22;7099;53.922;10.728;2023-11-19T13:58:34;12.20;99.90
14049;DHT22;7099;53.922;10.728;2023-11-19T14:02:40;12.20;99.90
14049;DHT22;7099;53.922;10.728;2023-11-19T14:06:46;12.30;99.90
14049;DHT22;7099;53.922;10.728;2023-11-19T14:10:52;12.20;99.90
14049;DHT22;7099;53.922;10.728;2023-11-19T14:15:00;12.30;99.90
14049;DHT22;7099;53.922;10.728;2023-11-19T14:19:06;12.20;99.90
14049;DHT22;7099;53.922;10.728;2023-11-19T14:23:12;12.20;99.90
14049;DHT22;7099;53.922;10.728;2023-11-19T14:27:17;12.20;99.90
14049;DHT22;7099;53.922;10.728;2023-11-19T14:31:23;12.20;99.90
14049;DHT22;7099;53.922;10.728;2023-11-19T14:35:33;12.20;99.90
14049;DHT22;7099;53.922;10.728;2023-11-19T14:39:39;12.10;99.90
14049;DHT22;7099;53.922;10.728;2023-11-19T14:43:45;12.10;99.90
14049;DHT22;7099;53.922;10.728;2023-11-19T14:47:50;12.10;99.90
14049;DHT22;7099;53.922;10.728;2023-11-19T14:51:58;12.10;99.90
14049;DHT22;7099;53.922;10.728;2023-11-19T14:56:22;12.00;99.90
14049;DHT22;7099;53.922;10.728;2023-11-19T15:00:27;12.00;99.90
14049;DHT22;7099;53.922;10.728;2023-11-19T15:04:34;11.90;99.90
14049;DHT22;7099;53.922;10.728;2023-11-19T15:08:39;11.90;99.90
14049;DHT22;7099;53.922;10.728;2023-11-19T15:12:45;11.80;99.90
14049;DHT22;7099;53.922;10.728;2023-11-19T15:16:51;11.80;99.90
14049;DHT22;7099;53.922;10.728;2023-11-19T15:20:57;11.80;99.90
14049;DHT22;7099;53.922;10.728;2023-11-19T15:25:03;11.70;99.90
14049;DHT22;7099;53.922;10.728;2023-11-19T15:29:09;11.70;99.90
14049;DHT22;7099;53.922;10.728;2023-11-19T15:33:14;11.70;99.90
14049;DHT22;7099;53.922;10.728;2023-11-19T15:37:20;11.60;99.90
14049;DHT22;7099;53.922;10.728;2023-11-19T15:41:26;11.60;99.90
14049;DHT22;7099;53.922;10.728;2023-11-19T15:45:33;11.60;99.90
14049;DHT22;7099;53.922;10.728;2023-11-19T15:49:43;11.50;99.90
14049;DHT22;7099;53.922;10.728;2023-11-19T15:53:50;11.50;99.90
14049;DHT22;7099;53.922;10.728;2023-11-19T15:57:56;11.50;99.90
14049;DHT22;7099;53.922;10.728;2023-11-19T16:02:01;11.50;99.90
14049;DHT22;7099;53.922;10.728;2023-11-19T16:06:07;11.40;99.90
14049;DHT22;7099;53.922;10.728;2023-11-19T16:10:15;11.40;99.90
14049;DHT22;7099;53.922;10.728;2023-11-19T16:14:28;11.40;99.90
14049;DHT22;7099;53.922;10.728;2023-11-19T16:18:35;11.30;99.90
14049;DHT22;7099;53.922;10.728;2023-11-19T16:22:40;11.40;99.90
14049;DHT22;7099;53.922;10.728;2023-11-19T16:26:49;11.30;99.90
14049;DHT22;7099;53.922;10.728;2023-11-19T16:30:56;11.30;99.90
14049;DHT22;7099;53.922;10.728;2023-11-19T16:35:01;11.30;99.90
14049;DHT22;7099;53.922;10.728;2023-11-19T16:39:07;11.40;99.90
14049;DHT22;7099;53.922;10.728;2023-11-19T16:43:17;11.40;99.90
14049;DHT22;7099;53.922;10.728;2023-11-19T16:47:24;11.30;99.90
14049;DHT22;7099;53.922;10.728;2023-11-19T16:51:29;11.30;99.90
14049;DHT22;7099;53.922;10.728;2023-11-19T16:55:35;11.30;99.90
14049;DHT22;7099;53.922;10.728;2023-11-19T16:59:40;11.30;99.90
14049;DHT22;7099;53.922;10.728;2023-11-19T17:03:47;11.30;99.90
14049;DHT22;7099;53.922;10.728;2023-11-19T17:07:52;11.20;99.90
14049;DHT22;7099;53.922;10.728;2023-11-19T17:11:58;11.20;99.90
14049;DHT22;7099;53.922;10.728;2023-11-19T17:16:04;11.20;99.90
14049;DHT22;7099;53.922;10.728;2023-11-19T17:20:12;11.20;99.90
14049;DHT22;7099;53.922;10.728;2023-11-19T17:24:18;11.20;99.90
14049;DHT22;7099;53.922;10.728;2023-11-19T17:28:24;11.10;99.90
14049;DHT22;7099;53.922;10.728;2023-11-19T17:32:30;11.10;99.90
14049;DHT22;7099;53.922;10.728;2023-11-19T17:36:37;11.10;99.90
14049;DHT22;7099;53.922;10.728;2023-11-19T17:40:43;11.10;99.90
14049;DHT22;7099;53.922;10.728;2023-11-19T17:44:49;11.10;99.90
14049;DHT22;7099;53.922;10.728;2023-11-19T17:48:54;11.00;99.90
14049;DHT22;7099;53.922;10.728;2023-11-19T17:53:00;11.00;99.90
14049;DHT22;7099;53.922;10.728;2023-11-19T17:57:06;11.00;99.90
14049;DHT22;7099;53.922;10.728;2023-11-19T18:01:12;11.00;99.90
14049;DHT22;7099;53.922;10.728;2023-11-19T18:05:18;10.90;99.90
14049;DHT22;7099;53.922;10.728;2023-11-19T18:09:26;10.90;99.90
14049;DHT22;7099;53.922;10.728;2023-11-19T18:13:32;10.90;99.90
14049;DHT22;7099;53.922;10.728;2023-11-19T18:17:38;10.90;99.90
14049;DHT22;7099;53.922;10.728;2023-11-19T18:21:47;10.80;99.90
14049;DHT22;7099;53.922;10.728;2023-11-19T18:25:54;10.80;99.90
14049;DHT22;7099;53.922;10.728;2023-11-19T18:29:59;10.80;99.90
14049;DHT22;7099;53.922;10.728;2023-11-19T18:34:05;10.90;99.90
14049;DHT22;7099;53.922;10.728;2023-11-19T18:38:11;10.80;99.90
14049;DHT22;7099;53.922;10.728;2023-11-19T18:42:17;10.80;99.90
14049;DHT22;7099;53.922;10.728;2023-11-19T18:46:22;10.80;99.90
14049;DHT22;7099;53.922;10.728;2023-11-19T18:50:28;10.80;99.90
14049;DHT22;7099;53.922;10.728;2023-11-19T18:54:34;10.80;99.90
14049;DHT22;7099;53.922;10.728;2023-11-19T18:58:40;10.80;99.90
14049;DHT22;7099;53.922;10.728;2023-11-19T19:02:46;10.80;99.90
14049;DHT22;7099;53.922;10.728;2023-11-19T19:06:57;10.80;99.90
14049;DHT22;7099;53.922;10.728;2023-11-19T19:11:03;10.80;99.90
14049;DHT22;7099;53.922;10.728;2023-11-19T19:15:10;10.80;99.90
14049;DHT22;7099;53.922;10.728;2023-11-19T19:19:21;10.80;99.90
14049;DHT22;7099;53.922;10.728;2023-11-19T19:23:27;10.80;99.90
14049;DHT22;7099;53.922;10.728;2023-11-19T19:27:33;10.80;99.90
14049;DHT22;7099;53.922;10.728;2023-11-19T19:31:39;10.80;99.90
14049;DHT22;7099;53.922;10.728;2023-11-19T19:35:44;10.80;99.90
14049;DHT22;7099;53.922;10.728;2023-11-19T19:56:17;10.80;99.90
14049;DHT22;7099;53.922;10.728;2023-11-19T20:00:23;11.10;99.90
14049;DHT22;7099;53.922;10.728;2023-11-19T20:04:28;11.00;99.90
14049;DHT22;7099;53.922;10.728;2023-11-19T20:08:34;10.90;99.90
14049;DHT22;7099;53.922;10.728;2023-11-19T20:12:41;10.80;99.90
14049;DHT22;7099;53.922;10.728;2023-11-19T20:16:46;10.70;99.90
14049;DHT22;7099;53.922;10.728;2023-11-19T20:21:13;10.70;99.90
14049;DHT22;7099;53.922;10.728;2023-11-19T20:25:18;10.60;99.90
14049;DHT22;7099;53.922;10.728;2023-11-19T20:29:24;10.60;99.90
14049;DHT22;7099;53.922;10.728;2023-11-19T20:33:32;10.60;99.90
14049;DHT22;7099;53.922;10.728;2023-11-19T20:37:37;10.50;99.90
14049;DHT22;7099;53.922;10.728;2023-11-19T20:41:43;10.50;99.90
14049;DHT22;7099;53.922;10.728;2023-11-19T20:45:49;10.50;99.90
14049;DHT22;7099;53.922;10.728;2023-11-19T20:49:54;10.40;99.90
14049;DHT22;7099;53.922;10.728;2023-11-19T20:54:00;10.40;99.90
14049;DHT22;7099;53.922;10.728;2023-11-19T20:58:05;10.30;99.90
14049;DHT22;7099;53.922;10.728;2023-11-19T21:02:13;10.30;99.90
14049;DHT22;7099;53.922;10.728;2023-11-19T21:06:20;10.30;99.90
14049;DHT22;7099;53.922;10.728;2023-11-19T21:10:26;10.30;99.90
14049;DHT22;7099;53.922;10.728;2023-11-19T21:14:32;10.20;99.90
14049;DHT22;7099;53.922;10.728;2023-11-19T21:18:38;10.20;99.90
14049;DHT22;7099;53.922;10.728;2023-11-19T21:22:44;10.20;99.90
14049;DHT22;7099;53.922;10.728;2023-11-19T21:26:50;10.20;99.90
14049;DHT22;7099;53.922;10.728;2023-11-19T21:30:56;10.20;99.90
14049;DHT22;7099;53.922;10.728;2023-11-19T21:35:05;10.20;99.90
14049;DHT22;7099;53.922;10.728;2023-11-19T21:39:11;10.10;99.90
14049;DHT22;7099;53.922;10.728;2023-11-19T21:43:17;10.10;99.90
14049;DHT22;7099;53.922;10.728;2023-11-19T21:47:23;10.10;99.90
14049;DHT22;7099;53.922;10.728;2023-11-19T21:51:28;10.10;99.90
14049;DHT22;7099;53.922;10.728;2023-11-19T21:55:34;10.10;99.90
14049;DHT22;7099;53.922;10.728;2023-11-19T21:59:39;10.10;99.90
14049;DHT22;7099;53.922;10.728;2023-11-19T22:03:45;10.10;99.90
14049;DHT22;7099;53.922;10.728;2023-11-19T22:07:51;10.10;99.90
14049;DHT22;7099;53.922;10.728;2023-11-19T22:11:56;10.10;99.90
14049;DHT22;7099;53.922;10.728;2023-11-19T22:16:02;10.10;99.90
14049;DHT22;7099;53.922;10.728;2023-11-19T22:20:08;10.20;99.90
14049;DHT22;7099;53.922;10.728;2023-11-19T22:24:18;10.20;99.90
14049;DHT22;7099;53.922;10.728;2023-11-19T22:28:23;10.20;99.90
14049;DHT22;7099;53.922;10.728;2023-11-19T22:32:29;10.20;99.90
14049;DHT22;7099;53.922;10.728;2023-11-19T22:36:37;10.20;99.90
14049;DHT22;7099;53.922;10.728;2023-11-19T22:40:43;10.30;99.90
14049;DHT22;7099;53.922;10.728;2023-11-19T22:44:48;10.30;99.90
14049;DHT22;7099;53.922;10.728;2023-11-19T22:48:54;10.30;99.90
14049;DHT22;7099;53.922;10.728;2023-11-19T22:52:59;10.30;99.90
14049;DHT22;7099;53.922;10.728;2023-11-19T22:57:05;10.30;99.90
14049;DHT22;7099;53.922;10.728;2023-11-19T23:01:11;10.30;99.90
14049;DHT22;7099;53.922;10.728;2023-11-19T23:05:17;10.30;99.90
14049;DHT22;7099;53.922;10.728;2023-11-19T23:09:23;10.30;99.90
14049;DHT22;7099;53.922;10.728;2023-11-19T23:13:28;10.30;99.90
14049;DHT22;7099;53.922;10.728;2023-11-19T23:17:36;10.30;99.90
14049;DHT22;7099;53.922;10.728;2023-11-19T23:21:41;10.30;99.90
14049;DHT22;7099;53.922;10.728;2023-11-19T23:25:49;10.40;99.90
14049;DHT22;7099;53.922;10.728;2023-11-19T23:29:54;10.40;99.90
14049;DHT22;7099;53.922;10.728;2023-11-19T23:34:01;10.40;99.90
14049;DHT22;7099;53.922;10.728;2023-11-19T23:38:06;10.40;99.90
14049;DHT22;7099;53.922;10.728;2023-11-19T23:42:13;10.40;99.90
14049;DHT22;7099;53.922;10.728;2023-11-19T23:46:18;10.40;99.90
14049;DHT22;7099;53.922;10.728;2023-11-19T23:50:24;10.40;99.90
14049;DHT22;7099;53.922;10.728;2023-11-19T23:54:30;10.40;99.90
14049;DHT22;7099;53.922;10.728;2023-11-19T23:58:36;10.40;99.90
